Time;durP1;ratioP1;P1;durP2;ratioP2;P2;SDS_P1;SDS_P2;PMS_P1;PMS_P2;Temp;Humidity;BMP_temperature;BMP_pressure;BME280_temperature;BME280_humidity;BME280_pressure;Samples;Min_cycle;Max_cycle;Signal;HPM_P1;HPM_P2
2021/03/30 00:00:37;;;;;;;52.77;28.33;;;9.50;99.90;;;;;;4409440;32;20158;-74
2021/03/30 00:03:05;;;;;;;55.20;29.53;;;9.50;99.90;;;;;;4409357;32;20155;-74
2021/03/30 00:05:32;;;;;;;54.67;29.37;;;9.50;99.90;;;;;;4409133;32;20490;-74
2021/03/30 00:07:58;;;;;;;54.93;29.63;;;9.40;99.90;;;;;;4410540;32;20166;-74
2021/03/30 00:10:31;;;;;;;52.93;29.50;;;9.40;99.90;;;;;;4409214;32;20207;-74
2021/03/30 00:12:58;;;;;;;48.27;28.27;;;9.40;99.90;;;;;;4409802;32;20489;-74
2021/03/30 00:15:24;;;;;;;51.23;28.03;;;9.50;99.90;;;;;;4410774;32;20197;-75
2021/03/30 00:17:51;;;;;;;51.73;28.33;;;9.50;99.90;;;;;;4396665;32;20537;-74
2021/03/30 00:20:17;;;;;;;56.63;29.33;;;9.50;99.90;;;;;;4409833;32;20170;-74
2021/03/30 00:22:44;;;;;;;57.60;29.00;;;9.50;99.90;;;;;;4410639;32;20499;-73
2021/03/30 00:25:12;;;;;;;47.97;28.10;;;9.50;99.90;;;;;;4408997;32;20251;-75
2021/03/30 00:27:38;;;;;;;50.83;27.90;;;9.50;99.90;;;;;;4410566;32;20165;-75
2021/03/30 00:30:08;;;;;;;53.37;29.30;;;9.50;99.90;;;;;;4408990;32;20223;-75
2021/03/30 00:32:34;;;;;;;50.47;27.63;;;9.50;99.90;;;;;;4409071;32;20202;-75
2021/03/30 00:35:01;;;;;;;48.13;27.00;;;9.60;99.90;;;;;;4409086;32;20155;-74
2021/03/30 00:37:27;;;;;;;45.67;26.43;;;9.50;99.90;;;;;;4409030;32;20392;-74
2021/03/30 00:39:54;;;;;;;51.17;27.77;;;9.60;99.90;;;;;;4407913;32;20151;-75
2021/03/30 00:42:21;;;;;;;53.50;29.00;;;9.50;99.90;;;;;;4408910;32;20151;-75
2021/03/30 00:44:48;;;;;;;52.97;28.10;;;9.50;99.90;;;;;;4408993;32;20230;-74
2021/03/30 00:47:15;;;;;;;46.93;26.33;;;9.50;99.90;;;;;;4408926;32;20147;-75
2021/03/30 00:49:43;;;;;;;50.37;27.43;;;9.50;99.90;;;;;;4408344;32;20399;-75
2021/03/30 00:52:12;;;;;;;49.30;27.53;;;9.50;99.90;;;;;;4407135;32;20155;-74
2021/03/30 00:54:38;;;;;;;46.83;26.63;;;9.50;99.90;;;;;;4407220;32;20540;-75
2021/03/30 00:57:06;;;;;;;52.23;27.80;;;9.60;99.90;;;;;;4408152;32;20210;-75
2021/03/30 00:59:33;;;;;;;46.00;25.73;;;9.60;99.90;;;;;;4407204;32;20158;-75
2021/03/30 01:02:00;;;;;;;51.03;26.90;;;9.60;99.90;;;;;;4407001;32;20163;-75
2021/03/30 01:04:27;;;;;;;44.63;25.37;;;9.60;99.90;;;;;;4407121;32;20222;-75
2021/03/30 01:06:54;;;;;;;46.53;25.87;;;9.60;99.90;;;;;;4408530;32;20151;-75
2021/03/30 01:10:01;;;;;;;42.23;24.70;;;9.60;99.90;;;;;;4408399;32;20151;-75
2021/03/30 01:12:50;;;;;;;42.23;25.67;;;9.60;99.90;;;;;;4408971;32;20215;-75
2021/03/30 01:15:47;;;;;;;46.60;26.03;;;9.60;99.90;;;;;;4408971;32;20190;-75
2021/03/30 01:18:36;;;;;;;49.57;25.40;;;9.60;99.90;;;;;;4408006;32;20182;-75
2021/03/30 01:21:18;;;;;;;45.70;26.47;;;9.70;99.90;;;;;;4408311;32;20158;-75
2021/03/30 01:24:02;;;;;;;50.87;29.07;;;9.60;99.90;;;;;;4408879;32;20143;-75
2021/03/30 01:26:28;;;;;;;58.40;31.87;;;9.60;99.90;;;;;;4410668;32;20136;-75
2021/03/30 01:29:17;;;;;;;55.60;32.93;;;9.60;99.90;;;;;;4408929;32;20413;-75
2021/03/30 01:31:47;;;;;;;60.40;33.97;;;9.70;99.90;;;;;;4412233;32;20181;-75
2021/03/30 01:34:15;;;;;;;67.03;36.67;;;9.60;99.90;;;;;;4411616;32;20206;-75
2021/03/30 01:36:43;;;;;;;68.30;38.83;;;9.70;99.90;;;;;;4413135;32;20424;-75
2021/03/30 01:39:11;;;;;;;65.30;38.17;;;9.60;99.90;;;;;;4412071;32;20464;-75
2021/03/30 01:41:42;;;;;;;64.37;37.87;;;9.70;99.90;;;;;;4411436;32;20226;-75
2021/03/30 01:44:09;;;;;;;66.90;35.83;;;9.70;99.90;;;;;;4413046;32;20202;-75
2021/03/30 01:46:36;;;;;;;58.80;33.10;;;9.70;99.90;;;;;;4413222;32;20183;-75
2021/03/30 01:49:05;;;;;;;52.27;30.33;;;9.70;99.90;;;;;;4411373;32;20147;-75
2021/03/30 01:51:31;;;;;;;53.17;30.50;;;9.70;99.90;;;;;;4411538;32;20143;-75
2021/03/30 01:53:59;;;;;;;58.00;31.67;;;9.70;99.90;;;;;;4411173;32;20152;-75
2021/03/30 01:56:29;;;;;;;70.63;40.00;;;9.60;99.90;;;;;;4411559;32;20183;-74
2021/03/30 01:58:59;;;;;;;69.90;39.90;;;9.70;99.90;;;;;;4410646;32;20241;-74
2021/03/30 02:01:27;;;;;;;61.00;34.90;;;9.70;99.90;;;;;;4409817;32;20586;-75
2021/03/30 02:03:54;;;;;;;52.43;28.47;;;9.60;99.90;;;;;;4409572;32;20536;-74
2021/03/30 02:06:22;;;;;;;48.83;27.27;;;9.60;99.90;;;;;;4408819;32;20147;-74
2021/03/30 02:08:49;;;;;;;47.47;26.27;;;9.60;99.90;;;;;;4408941;32;20255;-75
2021/03/30 02:11:29;;;;;;;49.77;25.60;;;9.60;99.90;;;;;;4409018;32;20186;-74
2021/03/30 02:13:58;;;;;;;45.73;24.93;;;9.70;99.90;;;;;;4411112;32;20151;-75
2021/03/30 02:16:29;;;;;;;48.27;25.10;;;9.80;99.90;;;;;;4406007;32;20171;-74
2021/03/30 02:19:12;;;;;;;45.90;25.33;;;9.70;99.90;;;;;;4412199;32;20186;-74
2021/03/30 02:21:55;;;;;;;47.67;25.93;;;9.60;99.90;;;;;;4398076;32;20209;-75
2021/03/30 02:24:22;;;;;;;45.60;25.77;;;9.60;99.90;;;;;;4397281;32;20402;-74
2021/03/30 02:26:50;;;;;;;48.53;26.07;;;9.60;99.90;;;;;;4397512;32;20178;-74
2021/03/30 02:29:22;;;;;;;46.43;26.07;;;9.60;99.90;;;;;;4395739;32;20193;-75
2021/03/30 02:31:53;;;;;;;44.30;25.07;;;9.60;99.90;;;;;;4397252;32;20166;-75
2021/03/30 02:34:26;;;;;;;49.03;24.93;;;9.60;99.90;;;;;;4396692;32;20531;-75
2021/03/30 02:36:54;;;;;;;43.80;24.93;;;9.60;99.90;;;;;;4397386;32;20178;-75
2021/03/30 02:39:21;;;;;;;42.73;24.27;;;9.60;99.90;;;;;;4395816;32;20162;-75
2021/03/30 02:41:49;;;;;;;43.03;25.83;;;9.60;99.90;;;;;;4394871;32;20230;-75
2021/03/30 02:44:18;;;;;;;48.57;26.17;;;9.50;99.90;;;;;;4395548;32;20136;-75
2021/03/30 02:46:47;;;;;;;44.93;25.83;;;9.60;99.90;;;;;;4395285;32;20167;-75
2021/03/30 02:49:16;;;;;;;47.60;25.63;;;9.60;99.90;;;;;;4396177;32;20155;-74
2021/03/30 02:51:46;;;;;;;44.57;25.43;;;9.60;99.90;;;;;;4395300;32;20384;-75
2021/03/30 02:54:15;;;;;;;45.73;25.43;;;9.60;99.90;;;;;;4395369;32;20481;-75
2021/03/30 02:56:42;;;;;;;49.13;24.90;;;9.70;99.90;;;;;;4395082;32;20186;-75
2021/03/30 02:59:10;;;;;;;44.43;24.47;;;9.70;99.90;;;;;;4395343;32;20159;-75
2021/03/30 03:01:37;;;;;;;41.30;24.53;;;9.70;99.90;;;;;;4396757;32;20253;-75
2021/03/30 03:04:04;;;;;;;46.00;24.47;;;9.80;99.90;;;;;;4395083;32;20409;-75
2021/03/30 03:06:31;;;;;;;45.70;24.30;;;9.80;99.90;;;;;;4395172;32;20215;-75
2021/03/30 03:08:58;;;;;;;45.97;25.23;;;9.70;99.90;;;;;;4395202;32;20441;-75
2021/03/30 03:11:25;;;;;;;48.40;24.90;;;9.70;99.90;;;;;;4395116;32;20154;-75
2021/03/30 03:13:54;;;;;;;45.73;25.03;;;9.70;99.90;;;;;;4394607;32;20364;-75
2021/03/30 03:16:22;;;;;;;45.67;25.53;;;9.70;99.90;;;;;;4396456;32;20199;-75
2021/03/30 03:18:49;;;;;;;49.20;24.90;;;9.70;99.90;;;;;;4394472;32;20489;-75
2021/03/30 03:21:16;;;;;;;49.07;26.07;;;9.70;99.90;;;;;;4396040;32;20158;-75
2021/03/30 03:23:43;;;;;;;48.93;25.37;;;9.70;99.90;;;;;;4394968;32;20140;-75
2021/03/30 03:26:13;;;;;;;47.17;24.77;;;9.70;99.90;;;;;;4396432;32;20403;-75
2021/03/30 03:28:41;;;;;;;50.57;25.03;;;9.70;99.90;;;;;;4395064;32;20139;-75
2021/03/30 03:31:09;;;;;;;46.30;25.43;;;9.60;99.90;;;;;;4395408;32;20151;-75
2021/03/30 03:33:36;;;;;;;43.27;25.33;;;9.70;99.90;;;;;;4395129;32;20485;-75
2021/03/30 03:36:07;;;;;;;42.03;24.60;;;9.70;99.90;;;;;;4394783;32;20399;-75
2021/03/30 03:38:38;;;;;;;44.00;24.17;;;9.80;99.90;;;;;;4395700;32;20486;-75
2021/03/30 03:41:12;;;;;;;45.00;24.73;;;9.80;99.90;;;;;;4394673;32;20139;-75
2021/03/30 03:43:39;;;;;;;43.10;24.57;;;9.70;99.90;;;;;;4396175;32;20165;-75
2021/03/30 03:46:06;;;;;;;42.57;24.07;;;9.70;99.90;;;;;;4394589;32;20140;-75
2021/03/30 03:48:32;;;;;;;47.23;24.77;;;9.70;99.90;;;;;;4394799;32;20131;-75
2021/03/30 03:51:02;;;;;;;46.00;24.20;;;9.70;99.90;;;;;;4394639;32;20139;-75
2021/03/30 03:53:30;;;;;;;41.33;24.27;;;9.70;99.90;;;;;;4394464;32;20159;-75
2021/03/30 03:55:58;;;;;;;42.73;24.40;;;9.70;99.90;;;;;;4395994;32;20510;-75
2021/03/30 03:58:32;;;;;;;44.83;22.87;;;9.80;99.90;;;;;;4395905;32;20160;-75
2021/03/30 04:01:01;;;;;;;42.97;24.10;;;9.80;99.90;;;;;;4394778;32;20131;-75
2021/03/30 04:03:32;;;;;;;47.83;24.23;;;9.90;99.90;;;;;;4395036;32;20158;-75
2021/03/30 04:06:08;;;;;;;45.03;23.57;;;9.80;99.90;;;;;;4396052;32;20383;-75
2021/03/30 04:08:41;;;;;;;45.30;24.60;;;9.90;99.90;;;;;;4395871;32;20169;-75
2021/03/30 04:11:09;;;;;;;47.63;24.13;;;9.80;99.90;;;;;;4395363;32;20554;-75
2021/03/30 04:13:39;;;;;;;48.80;24.13;;;9.80;99.90;;;;;;4394288;32;20139;-75
2021/03/30 04:16:06;;;;;;;47.33;24.47;;;9.90;99.90;;;;;;4396283;32;20385;-75
2021/03/30 04:18:34;;;;;;;46.67;24.20;;;9.80;99.90;;;;;;4395984;32;20167;-75
2021/03/30 04:21:03;;;;;;;44.50;23.93;;;9.80;99.90;;;;;;4395987;32;20221;-75
2021/03/30 04:23:30;;;;;;;46.70;24.47;;;9.90;99.90;;;;;;4394226;32;20432;-75
2021/03/30 04:25:57;;;;;;;46.00;25.17;;;9.80;99.90;;;;;;4395671;32;20193;-75
2021/03/30 04:28:23;;;;;;;51.27;26.63;;;9.90;99.90;;;;;;4394164;32;20202;-75
2021/03/30 04:30:51;;;;;;;55.10;32.40;;;9.90;99.90;;;;;;4393854;32;20158;-75
2021/03/30 04:33:17;;;;;;;61.13;37.13;;;9.80;99.90;;;;;;4395017;32;20193;-75
2021/03/30 04:35:44;;;;;;;67.83;39.13;;;9.80;99.90;;;;;;4395048;32;20470;-75
2021/03/30 04:38:10;;;;;;;62.10;37.50;;;9.80;99.90;;;;;;4394048;32;20143;-75
2021/03/30 04:40:36;;;;;;;60.97;37.40;;;9.80;99.90;;;;;;4394032;32;20174;-75
2021/03/30 04:43:03;;;;;;;57.47;32.30;;;9.80;99.90;;;;;;4394077;32;20148;-75
2021/03/30 04:45:30;;;;;;;61.47;34.17;;;9.80;99.90;;;;;;4395468;32;20168;-76
2021/03/30 04:47:56;;;;;;;61.97;35.27;;;9.90;99.90;;;;;;4394035;32;20183;-76
2021/03/30 04:50:23;;;;;;;55.27;32.70;;;9.90;99.90;;;;;;4393893;32;20529;-76
2021/03/30 04:52:49;;;;;;;55.07;32.03;;;9.90;99.90;;;;;;4395466;32;20207;-74
2021/03/30 04:55:16;;;;;;;58.00;32.07;;;9.90;99.90;;;;;;4393903;32;20148;-76
2021/03/30 04:57:42;;;;;;;54.03;30.60;;;9.80;99.90;;;;;;4394096;32;20190;-75
2021/03/30 05:00:09;;;;;;;53.43;29.53;;;9.90;99.90;;;;;;4394742;32;20162;-75
2021/03/30 05:02:36;;;;;;;57.73;28.70;;;9.90;99.90;;;;;;4393466;32;20178;-75
2021/03/30 05:05:03;;;;;;;50.70;27.87;;;9.90;99.90;;;;;;4394647;32;20203;-75
2021/03/30 05:07:29;;;;;;;50.70;26.57;;;9.80;99.90;;;;;;4398343;32;20462;-75
2021/03/30 05:09:56;;;;;;;46.63;26.70;;;9.90;99.90;;;;;;4396728;32;20218;-75
2021/03/30 05:12:24;;;;;;;50.20;27.53;;;9.90;99.90;;;;;;4397164;32;20146;-75
2021/03/30 05:14:51;;;;;;;51.47;27.97;;;9.80;99.90;;;;;;4397028;32;20160;-75
2021/03/30 05:17:17;;;;;;;54.13;28.20;;;9.80;99.90;;;;;;4396735;32;20160;-75
2021/03/30 05:19:44;;;;;;;55.87;29.33;;;9.90;99.90;;;;;;4396359;32;20173;-75
2021/03/30 05:22:10;;;;;;;51.30;28.77;;;9.90;99.90;;;;;;4396620;32;20140;-75
2021/03/30 05:24:37;;;;;;;57.37;29.83;;;9.80;99.90;;;;;;4396615;32;20182;-75
2021/03/30 05:27:04;;;;;;;58.87;30.63;;;9.70;99.90;;;;;;4398089;32;20132;-75
2021/03/30 05:29:31;;;;;;;58.20;29.67;;;9.80;99.90;;;;;;4396434;32;20222;-75
2021/03/30 05:31:57;;;;;;;57.87;29.80;;;9.80;99.90;;;;;;4396441;32;20143;-75
2021/03/30 05:34:24;;;;;;;54.97;30.27;;;9.80;99.90;;;;;;4396476;32;20167;-75
2021/03/30 05:36:50;;;;;;;61.37;29.70;;;9.90;99.90;;;;;;4396281;32;20143;-75
2021/03/30 05:39:17;;;;;;;60.37;30.23;;;9.90;99.90;;;;;;4396482;32;20508;-75
2021/03/30 05:41:43;;;;;;;62.37;30.17;;;9.90;99.90;;;;;;4396299;32;20139;-75
2021/03/30 05:44:10;;;;;;;61.40;29.67;;;9.90;99.90;;;;;;4396339;32;20140;-75
2021/03/30 05:46:39;;;;;;;56.50;29.10;;;10.00;99.90;;;;;;4396314;32;20257;-75
2021/03/30 05:49:05;;;;;;;59.13;30.50;;;10.10;99.90;;;;;;4396066;32;20143;-75
2021/03/30 05:51:38;;;;;;;56.37;28.43;;;10.10;99.90;;;;;;4396140;32;20162;-75
2021/03/30 05:54:06;;;;;;;54.27;29.70;;;10.10;99.90;;;;;;4396711;32;20148;-75
2021/03/30 05:56:36;;;;;;;56.90;29.30;;;10.10;99.90;;;;;;4396132;32;20155;-75
2021/03/30 05:59:05;;;;;;;54.57;28.67;;;10.20;99.90;;;;;;4397682;32;20222;-75
2021/03/30 06:01:34;;;;;;;57.27;28.73;;;10.20;99.90;;;;;;4396962;32;20147;-75
2021/03/30 06:04:02;;;;;;;54.63;27.70;;;10.30;99.90;;;;;;4395806;32;20155;-75
2021/03/30 06:06:28;;;;;;;49.33;28.00;;;10.40;99.90;;;;;;4396024;32;20140;-75
2021/03/30 06:08:55;;;;;;;49.03;27.97;;;10.40;99.90;;;;;;4395963;32;20147;-76
2021/03/30 06:11:22;;;;;;;54.10;27.37;;;10.40;99.90;;;;;;4396013;32;20136;-74
2021/03/30 06:13:52;;;;;;;50.10;27.30;;;10.30;99.90;;;;;;4396213;32;20214;-75
2021/03/30 06:16:29;;;;;;;48.27;27.00;;;10.40;99.90;;;;;;4395146;32;20253;-76
2021/03/30 06:19:12;;;;;;;48.80;27.93;;;10.50;99.90;;;;;;4396552;32;20188;-76
2021/03/30 06:22:01;;;;;;;46.53;27.07;;;10.40;99.90;;;;;;4396769;32;20163;-75
2021/03/30 06:24:30;;;;;;;50.93;28.83;;;10.40;99.90;;;;;;4408597;32;20185;-76
2021/03/30 06:27:18;;;;;;;49.83;28.20;;;10.40;99.90;;;;;;4397112;32;20178;-75
2021/03/30 06:29:44;;;;;;;50.20;28.07;;;10.40;99.90;;;;;;4397139;32;20143;-75
2021/03/30 06:32:14;;;;;;;49.33;27.93;;;10.50;99.90;;;;;;4394961;32;20142;-75
2021/03/30 06:34:43;;;;;;;52.43;28.20;;;10.40;99.90;;;;;;4395538;32;20139;-75
2021/03/30 06:37:28;;;;;;;52.80;29.43;;;10.50;99.90;;;;;;4395836;32;20523;-75
2021/03/30 06:39:56;;;;;;;52.67;28.50;;;10.60;99.90;;;;;;4395254;32;20529;-75
2021/03/30 06:42:35;;;;;;;48.47;27.50;;;10.60;99.90;;;;;;4395309;32;20218;-75
2021/03/30 06:45:10;;;;;;;53.57;27.57;;;10.70;99.90;;;;;;4396945;32;20211;-75
2021/03/30 06:47:37;;;;;;;51.57;27.57;;;10.60;99.90;;;;;;4396883;32;20478;-75
2021/03/30 06:50:09;;;;;;;52.73;27.87;;;10.80;99.90;;;;;;4395495;32;20160;-75
2021/03/30 06:52:37;;;;;;;47.43;27.40;;;10.90;99.90;;;;;;4395167;32;20132;-74
2021/03/30 06:55:08;;;;;;;44.23;26.10;;;11.00;99.90;;;;;;4395177;32;20148;-74
2021/03/30 06:57:45;;;;;;;46.27;26.43;;;11.00;99.90;;;;;;4394531;32;20163;-74
2021/03/30 07:00:34;;;;;;;44.23;25.20;;;11.10;99.90;;;;;;4396700;32;20215;-74
2021/03/30 07:03:04;;;;;;;44.07;24.40;;;11.20;99.90;;;;;;4396982;32;20147;-74
2021/03/30 07:05:33;;;;;;;43.53;24.03;;;11.30;99.90;;;;;;4394927;32;20213;-75
2021/03/30 07:08:05;;;;;;;43.97;23.87;;;11.30;99.90;;;;;;4395166;32;20193;-74
2021/03/30 07:10:34;;;;;;;43.50;23.97;;;11.30;99.90;;;;;;4394959;32;20147;-74
2021/03/30 07:13:02;;;;;;;45.00;24.37;;;11.40;99.90;;;;;;4395712;32;20164;-75
2021/03/30 07:15:28;;;;;;;45.90;23.93;;;11.50;99.90;;;;;;4395051;32;20208;-74
2021/03/30 07:18:25;;;;;;;40.33;23.23;;;11.60;99.90;;;;;;4395136;32;20406;-74
2021/03/30 07:21:02;;;;;;;41.97;22.23;;;11.70;99.90;;;;;;4395130;32;20139;-74
2021/03/30 07:23:34;;;;;;;36.67;21.13;;;11.80;99.90;;;;;;4394897;32;20528;-74
2021/03/30 07:26:09;;;;;;;37.07;20.20;;;11.80;99.90;;;;;;4394875;32;20163;-75
2021/03/30 07:29:00;;;;;;;36.77;21.40;;;11.80;99.90;;;;;;4395775;32;20356;-75
2021/03/30 07:31:31;;;;;;;39.00;21.23;;;11.80;99.90;;;;;;4395344;32;20186;-73
2021/03/30 07:34:09;;;;;;;44.03;22.13;;;11.90;99.90;;;;;;4396198;32;20198;-74
2021/03/30 07:36:45;;;;;;;38.70;21.33;;;11.90;99.90;;;;;;4394708;32;20167;-74
2021/03/30 07:39:15;;;;;;;37.53;23.17;;;11.90;99.90;;;;;;4401106;32;20168;-73
2021/03/30 07:41:42;;;;;;;39.10;22.03;;;12.00;99.90;;;;;;4407242;32;20159;-74
2021/03/30 07:44:09;;;;;;;42.43;22.97;;;12.10;99.90;;;;;;4407996;32;20151;-76
2021/03/30 07:46:36;;;;;;;39.67;21.20;;;12.10;99.90;;;;;;4407209;32;20163;-74
2021/03/30 07:49:04;;;;;;;39.60;21.93;;;12.30;99.90;;;;;;4407666;32;20214;-75
2021/03/30 07:51:37;;;;;;;37.67;21.87;;;12.30;99.90;;;;;;4407626;32;20222;-75
2021/03/30 07:54:15;;;;;;;35.67;20.50;;;12.40;99.90;;;;;;4407941;32;20167;-75
2021/03/30 07:56:41;;;;;;;33.13;19.23;;;12.60;99.90;;;;;;4409445;32;20212;-75
2021/03/30 07:59:09;;;;;;;34.83;19.53;;;12.60;99.90;;;;;;4409386;32;20177;-74
2021/03/30 08:01:36;;;;;;;37.37;19.27;;;12.70;99.90;;;;;;4408759;32;20498;-75
2021/03/30 08:04:04;;;;;;;36.67;19.73;;;12.70;99.90;;;;;;4408412;32;20151;-75
2021/03/30 08:06:47;;;;;;;35.03;18.93;;;12.80;99.90;;;;;;4408176;32;20520;-75
2021/03/30 08:09:17;;;;;;;32.27;17.93;;;12.90;99.90;;;;;;4405117;32;20162;-75
2021/03/30 08:11:44;;;;;;;34.70;19.53;;;12.90;99.90;;;;;;4408749;32;20203;-75
2021/03/30 08:14:36;;;;;;;32.90;19.67;;;13.10;99.90;;;;;;4408693;32;20143;-75
2021/03/30 08:17:17;;;;;;;34.40;20.20;;;13.20;99.90;;;;;;4409345;32;20524;-75
2021/03/30 08:20:02;;;;;;;37.23;20.23;;;13.20;99.90;;;;;;4407563;32;20197;-75
2021/03/30 08:22:41;;;;;;;36.87;21.33;;;13.00;99.90;;;;;;4395460;32;20167;-75
2021/03/30 08:25:23;;;;;;;35.70;21.37;;;13.10;99.90;;;;;;4408804;32;20198;-75
2021/03/30 08:27:50;;;;;;;35.20;21.57;;;13.10;99.90;;;;;;4408285;32;20518;-75
2021/03/30 08:30:36;;;;;;;37.60;21.50;;;13.20;99.90;;;;;;4406422;32;20203;-75
2021/03/30 08:33:04;;;;;;;37.50;22.10;;;13.00;99.90;;;;;;4409918;32;20150;-75
2021/03/30 08:35:38;;;;;;;35.33;22.67;;;13.00;99.90;;;;;;4408957;32;20177;-74
2021/03/30 08:38:05;;;;;;;38.60;23.23;;;13.10;99.90;;;;;;4408861;32;20150;-75
2021/03/30 08:40:35;;;;;;;40.60;22.90;;;13.30;99.90;;;;;;4408197;32;20151;-74
2021/03/30 08:43:14;;;;;;;37.77;23.77;;;13.10;99.90;;;;;;4406988;32;20170;-74
2021/03/30 08:46:00;;;;;;;37.00;23.53;;;13.00;99.90;;;;;;4408034;32;20169;-74
2021/03/30 08:48:43;;;;;;;37.47;23.60;;;13.00;99.90;;;;;;4408039;32;20269;-74
2021/03/30 08:51:15;;;;;;;43.27;24.80;;;13.10;99.90;;;;;;4408554;32;20163;-74
2021/03/30 08:53:43;;;;;;;38.47;24.03;;;13.20;99.90;;;;;;4409305;32;20151;-74
2021/03/30 08:56:12;;;;;;;43.27;25.57;;;13.50;99.90;;;;;;4408262;32;20151;-74
2021/03/30 08:58:44;;;;;;;40.40;25.07;;;13.50;99.90;;;;;;4408818;32;20147;-74
2021/03/30 09:01:11;;;;;;;40.13;23.47;;;13.80;99.90;;;;;;4408556;32;20223;-74
2021/03/30 09:03:38;;;;;;;38.30;22.60;;;14.00;99.90;;;;;;4408530;32;20174;-74
2021/03/30 09:06:05;;;;;;;33.90;22.40;;;14.20;99.90;;;;;;4407363;32;20155;-74
2021/03/30 09:08:36;;;;;;;37.10;23.80;;;14.30;99.90;;;;;;4407695;32;20159;-75
2021/03/30 09:11:16;;;;;;;37.97;23.77;;;14.30;99.90;;;;;;4408234;32;20202;-74
2021/03/30 09:14:00;;;;;;;38.00;23.70;;;14.40;99.90;;;;;;4407342;32;20193;-74
2021/03/30 09:16:27;;;;;;;38.03;23.30;;;14.50;99.90;;;;;;4409688;32;20447;-74
2021/03/30 09:19:19;;;;;;;39.90;22.90;;;14.40;99.90;;;;;;4406344;32;20197;-74
2021/03/30 09:21:57;;;;;;;40.63;23.23;;;14.40;99.90;;;;;;4408274;32;20155;-74
2021/03/30 09:24:49;;;;;;;38.17;23.17;;;14.40;99.90;;;;;;4407845;32;20182;-74
2021/03/30 09:27:11;;;;;;;32.93;22.53;;;14.60;99.90;;;;;;4408020;32;20174;-74
2021/03/30 09:29:38;;;;;;;34.47;22.53;;;14.50;99.90;;;;;;4408152;32;20151;-74
2021/03/30 09:32:08;;;;;;;34.00;20.93;;;14.20;99.90;;;;;;4408664;32;20191;-74
2021/03/30 09:34:41;;;;;;;34.20;20.97;;;14.30;99.90;;;;;;4405987;32;20151;-74
2021/03/30 09:37:08;;;;;;;35.43;20.53;;;14.40;99.90;;;;;;4409623;32;20390;-73
2021/03/30 09:39:36;;;;;;;33.10;20.17;;;14.40;99.90;;;;;;4409736;32;20212;-74
2021/03/30 09:42:04;;;;;;;32.50;19.60;;;14.30;99.90;;;;;;4406815;32;20406;-73
2021/03/30 09:44:45;;;;;;;33.23;19.70;;;14.30;99.90;;;;;;4408646;32;20475;-73
2021/03/30 09:47:13;;;;;;;36.60;21.23;;;14.20;99.90;;;;;;4408215;32;20208;-74
2021/03/30 09:49:46;;;;;;;32.83;21.20;;;13.80;99.90;;;;;;4409684;32;20393;-73
2021/03/30 09:52:13;;;;;;;34.47;20.23;;;13.70;99.90;;;;;;4410015;32;20195;-73
2021/03/30 09:54:42;;;;;;;34.57;21.10;;;13.80;99.90;;;;;;4411312;32;20520;-73
2021/03/30 09:57:21;;;;;;;34.10;21.17;;;13.90;99.90;;;;;;4412070;32;20187;-74
2021/03/30 09:59:49;;;;;;;33.90;21.33;;;13.90;99.90;;;;;;4401314;32;20163;-75
2021/03/30 10:02:18;;;;;;;35.23;21.70;;;13.80;99.90;;;;;;4410533;32;20499;-74
2021/03/30 10:04:44;;;;;;;40.60;22.73;;;13.70;99.90;;;;;;4410835;32;20483;-74
2021/03/30 10:07:18;;;;;;;38.20;22.17;;;13.70;99.90;;;;;;4411433;32;20178;-74
2021/03/30 10:09:57;;;;;;;36.23;21.23;;;13.80;99.90;;;;;;4410488;32;20159;-74
2021/03/30 10:12:33;;;;;;;35.80;22.07;;;13.80;99.90;;;;;;4412410;32;20186;-75
2021/03/30 10:15:00;;;;;;;37.23;21.43;;;13.70;99.90;;;;;;4409417;32;20194;-77
2021/03/30 10:17:30;;;;;;;31.67;20.37;;;13.80;99.90;;;;;;4406767;32;20590;-76
2021/03/30 10:19:58;;;;;;;30.37;21.10;;;13.70;99.90;;;;;;4407574;32;20253;-75
2021/03/30 10:22:28;;;;;;;35.77;21.33;;;13.60;99.90;;;;;;4410010;32;20142;-75
2021/03/30 10:25:14;;;;;;;31.87;21.50;;;13.60;99.90;;;;;;4411908;32;20146;-75
2021/03/30 10:27:53;;;;;;;32.23;20.37;;;13.70;99.90;;;;;;4410570;32;20151;-74
2021/03/30 10:30:47;;;;;;;31.20;19.57;;;13.60;99.90;;;;;;4410749;32;20449;-75
2021/03/30 10:33:39;;;;;;;32.03;20.37;;;13.60;99.90;;;;;;4411398;32;20374;-75
2021/03/30 10:36:09;;;;;;;35.17;21.83;;;14.00;99.90;;;;;;4410369;32;20458;-75
2021/03/30 10:38:59;;;;;;;31.87;20.20;;;14.20;99.90;;;;;;4410491;32;20484;-76
2021/03/30 10:41:37;;;;;;;28.13;18.40;;;14.40;99.90;;;;;;4405244;32;20206;-76
2021/03/30 10:44:05;;;;;;;25.33;16.73;;;14.40;99.90;;;;;;4410409;32;20246;-75
2021/03/30 10:46:41;;;;;;;24.27;15.70;;;14.00;99.90;;;;;;4408594;32;20165;-74
2021/03/30 10:49:08;;;;;;;21.87;15.30;;;14.30;99.90;;;;;;4410282;32;20146;-74
2021/03/30 10:51:38;;;;;;;20.47;13.43;;;14.30;99.90;;;;;;4406981;32;20704;-75
2021/03/30 10:54:06;;;;;;;19.53;12.23;;;14.10;99.90;;;;;;4399821;32;20180;-74
2021/03/30 10:56:33;;;;;;;17.83;12.60;;;14.00;99.90;;;;;;4409876;32;20159;-74
2021/03/30 10:59:10;;;;;;;17.10;12.63;;;13.80;99.90;;;;;;4409719;32;20146;-73
2021/03/30 11:01:37;;;;;;;19.77;13.13;;;13.70;99.90;;;;;;4410304;32;20610;-74
2021/03/30 11:04:04;;;;;;;19.13;12.70;;;13.70;99.90;;;;;;4408997;32;20143;-74
2021/03/30 11:06:31;;;;;;;18.70;12.97;;;13.60;99.90;;;;;;4409583;32;20499;-74
2021/03/30 11:08:58;;;;;;;21.70;14.03;;;13.50;99.90;;;;;;4410202;32;20151;-74
2021/03/30 11:11:25;;;;;;;20.67;13.57;;;13.30;99.90;;;;;;4409893;32;20404;-74
2021/03/30 11:13:52;;;;;;;17.17;12.27;;;13.30;99.90;;;;;;4408022;32;20189;-74
2021/03/30 11:16:19;;;;;;;20.30;12.20;;;13.40;99.90;;;;;;4405096;32;20229;-74
2021/03/30 11:18:46;;;;;;;19.80;11.53;;;13.20;99.90;;;;;;4409751;32;20144;-74
2021/03/30 11:21:13;;;;;;;17.00;11.57;;;13.20;99.90;;;;;;4407777;32;20202;-74
2021/03/30 11:23:41;;;;;;;15.63;10.00;;;13.30;99.90;;;;;;4409463;32;20152;-74
2021/03/30 11:26:12;;;;;;;15.17;9.10;;;13.30;99.90;;;;;;4409900;32;20146;-74
2021/03/30 11:28:42;;;;;;;13.83;8.73;;;13.20;99.90;;;;;;4406960;32;20535;-74
2021/03/30 11:31:18;;;;;;;12.50;7.97;;;13.40;99.90;;;;;;4410560;32;20151;-74
2021/03/30 11:33:51;;;;;;;12.00;7.53;;;13.60;99.90;;;;;;4411176;32;20361;-74
2021/03/30 11:36:20;;;;;;;13.10;7.20;;;13.80;99.90;;;;;;4405272;32;20194;-74
2021/03/30 11:38:47;;;;;;;11.20;7.13;;;13.70;99.90;;;;;;4409324;32;20175;-75
2021/03/30 11:41:13;;;;;;;18.50;10.67;;;13.80;99.90;;;;;;4408744;32;20170;-75
2021/03/30 11:43:39;;;;;;;19.07;11.70;;;13.90;99.90;;;;;;4409593;32;20185;-75
2021/03/30 11:46:06;;;;;;;19.53;11.90;;;14.00;99.90;;;;;;4407865;32;20208;-75
2021/03/30 11:48:32;;;;;;;16.20;11.03;;;14.00;99.90;;;;;;4409505;32;20170;-75
2021/03/30 11:50:59;;;;;;;19.30;11.13;;;14.20;99.90;;;;;;4409330;32;20155;-73
2021/03/30 11:53:25;;;;;;;24.23;14.13;;;14.20;99.90;;;;;;4407973;32;20183;-74
2021/03/30 11:55:52;;;;;;;25.70;15.40;;;14.00;99.90;;;;;;4408334;32;20212;-75
2021/03/30 11:58:19;;;;;;;25.67;15.03;;;13.90;99.90;;;;;;4406090;32;20148;-74
2021/03/30 12:00:45;;;;;;;24.17;15.27;;;13.90;99.90;;;;;;4408851;32;20186;-74
2021/03/30 12:03:12;;;;;;;26.23;16.20;;;14.00;99.90;;;;;;4401784;32;20446;-75
2021/03/30 12:05:38;;;;;;;27.40;16.30;;;14.20;99.90;;;;;;4391877;32;20524;-76
2021/03/30 12:08:05;;;;;;;23.67;13.67;;;14.30;99.90;;;;;;4391622;32;20532;-78
2021/03/30 12:10:31;;;;;;;23.80;14.27;;;14.30;99.90;;;;;;4393008;32;20187;-76
2021/03/30 12:12:58;;;;;;;24.00;14.33;;;14.20;99.90;;;;;;4393932;32;20546;-76
2021/03/30 12:15:25;;;;;;;29.20;15.93;;;14.00;99.90;;;;;;4393819;32;20177;-76
2021/03/30 12:17:51;;;;;;;27.27;16.20;;;14.10;99.90;;;;;;4394202;32;20214;-75
2021/03/30 12:20:18;;;;;;;28.73;16.67;;;14.20;99.90;;;;;;4394540;32;20205;-75
2021/03/30 12:22:45;;;;;;;28.30;16.33;;;14.10;99.90;;;;;;4393505;32;20138;-76
2021/03/30 12:25:12;;;;;;;29.40;17.10;;;14.10;99.90;;;;;;4393909;32;20147;-76
2021/03/30 12:27:38;;;;;;;25.93;16.30;;;14.10;99.90;;;;;;4393449;32;20147;-76
2021/03/30 12:30:06;;;;;;;24.67;15.20;;;14.20;99.90;;;;;;4393644;32;20470;-76
2021/03/30 12:32:32;;;;;;;25.67;16.17;;;14.00;99.90;;;;;;4393199;32;20152;-76
2021/03/30 12:35:02;;;;;;;24.93;14.23;;;13.80;99.90;;;;;;4393822;32;20181;-75
2021/03/30 12:37:28;;;;;;;26.73;15.00;;;13.90;99.90;;;;;;4394044;32;20143;-76
2021/03/30 12:39:55;;;;;;;25.37;15.10;;;13.80;99.90;;;;;;4394113;32;20236;-76
2021/03/30 12:42:21;;;;;;;28.17;15.97;;;13.60;99.90;;;;;;4393838;32;20139;-76
2021/03/30 12:44:48;;;;;;;26.53;15.60;;;13.60;99.90;;;;;;4393912;32;20555;-76
2021/03/30 12:47:14;;;;;;;25.63;16.27;;;13.70;99.90;;;;;;4393545;32;20466;-74